• Join FlightAware (Why Join?)
  • Login
  • US Flag 
11:45AM EST


 

Airport Tracker/Info


-or-


 

Live Flight TrackerFlight Track Log ✈ SWA542 ✈ 12-May-2013 ✈ KOAK - KSAN

Flight Track Log - Related Links

Times and Time Zones

All times are in EDT time to prevent confusion due to time zone crossing. See the SWA542 flight status page for this flight to view local times or setup timezone preferences in your user account.

Time Position Orientation Groundspeed Altitude Reporting Facility
EDT Latitude Longitude Course Direction KTS MPH feet Rate Location/Type
12:03AM 37.7667 -122.3000 310° West 207 238 3,200  Level Northern Cal TRACON
12:04AM 37.7875 -122.3669 292° West 230 265 5,600 2,160 Climbing Oakland Center
12:05AM 37.7256 -122.3978 201° Southwest 256 295 7,800 2,520 Climbing Oakland Center
12:06AM 37.6500 -122.4156 191° South 272 313 10,700 2,640 Climbing Oakland Center
12:07AM 37.5594 -122.4364 190° South 322 371 13,200 2,940 Climbing Oakland Center
12:08AM 37.2342 -122.4367 200° South  Level FlightAware Approximate
12:08AM 37.4619 -122.4586 190° South 347 399 16,700  Level Oakland Center
12:09AM 37.3625 -122.4814 190° South 358 412 19,900 2,880 Climbing Oakland Center
12:10AM 37.2594 -122.5039 190° South 370 426 22,600 2,520 Climbing Oakland Center
12:11AM 37.1519 -122.5283 190° South 385 443 25,100 2,280 Climbing Oakland Center
12:12AM 37.0414 -122.5536 190° South 400 460 27,300 1,980 Climbing Oakland Center
12:13AM 36.9297 -122.5375 173° South 419 482 29,200 1,860 Climbing Oakland Center
12:14AM 36.8172 -122.4194 140° Southeast 438 504 31,200 1,860 Climbing Oakland Center
12:15AM 36.7217 -122.3222 141° Southeast 442 509 33,000 1,200 Climbing Oakland Center
12:16AM 36.6264 -122.2244 141° Southeast 444 511 33,700 1,080 Climbing Oakland Center
12:18AM 36.5289 -122.1250 141° Southeast 450 518 35,200 1,860 Climbing Oakland Center
12:19AM 36.4344 -122.0275 140° Southeast 446 513 37,500 1,860 Climbing Oakland Center
12:20AM 36.3422 -121.9353 141° Southeast 432 497 39,000 720 Climbing Oakland Center
12:21AM 36.2494 -121.8433 141° Southeast 428 493 39,000  Level Oakland Center
12:22AM 36.1461 -121.7394 141° Southeast 430 495 39,000  Level Oakland Center
12:23AM 36.0517 -121.6486 142° Southeast 431 496 39,000  Level Oakland Center
12:24AM 35.9592 -121.5550 141° Southeast 432 497 39,000  Level Oakland Center
12:25AM 35.8650 -121.4625 141° Southeast 432 497 39,000  Level Oakland Center
12:26AM 35.7703 -121.3689 141° Southeast 435 501 39,000  Level Oakland Center
12:27AM 35.6750 -121.2753 141° Southeast 440 506 39,000  Level Oakland Center
12:28AM 35.5794 -121.1811 141° Southeast 441 507 39,000  Level Oakland Center
12:29AM 35.4853 -121.0847 140° Southeast 443 510 39,000  Level Oakland Center
12:30AM 35.4161 -120.9617 125° Southeast 442 509 39,000  Level Oakland Center
12:31AM 35.3461 -120.8414 125° Southeast 437 503 39,000  Level Oakland Center
12:32AM 35.2619 -120.6919 125° Southeast 437 503 39,000  Level Los Angeles Center
12:33AM 35.1928 -120.5714 125° Southeast 434 499 39,000  Level Los Angeles Center
12:34AM 35.1244 -120.4497 124° Southeast 432 497 39,000  Level Los Angeles Center
12:35AM 35.0553 -120.3286 125° Southeast 433 498 39,000  Level Los Angeles Center
12:36AM 34.9853 -120.2058 125° Southeast 437 503 39,000  Level Los Angeles Center
12:37AM 34.9081 -120.0731 125° Southeast 439 505 39,000  Level Los Angeles Center
12:38AM 34.8381 -119.9514 125° Southeast 440 506 39,000  Level Los Angeles Center
12:39AM 34.7675 -119.8314 126° Southeast 437 503 39,000  Level Los Angeles Center
12:40AM 34.6983 -119.7114 125° Southeast 434 499 39,000  Level Los Angeles Center
12:41AM 34.6283 -119.5911 125° Southeast 436 502 39,000  Level Los Angeles Center
12:42AM 34.5517 -119.4656 127° Southeast 430 495 39,000  Level Los Angeles Center
12:43AM 34.4817 -119.3469 126° Southeast 433 498 39,000  Level Los Angeles Center
12:44AM 34.4119 -119.2303 126° Southeast 430 495 39,000  Level Los Angeles Center
12:45AM 34.3422 -119.1125 126° Southeast 431 496 39,000  Level Los Angeles Center
12:46AM 34.2714 -118.9950 126° Southeast 432 497 39,000  Level Los Angeles Center
12:47AM 34.2025 -118.8775 125° Southeast 431 496 39,000  Level Los Angeles Center
12:48AM 34.1189 -118.7386 126° Southeast 428 493 39,000  Level Los Angeles Center
12:49AM 34.0483 -118.6231 126° Southeast 428 493 39,000 -300 Level Los Angeles Center
12:50AM 33.9786 -118.5067 126° Southeast 428 493 38,500 -780 Descending Los Angeles Center
12:51AM 33.9042 -118.3939 128° Southeast 431 496 37,500 -1,140 Descending Los Angeles Center
12:52AM 33.8253 -118.2975 135° Southeast 436 502 36,200 -2,400 Descending Los Angeles Center
12:53AM 33.7322 -118.1742 132° Southeast 439 505 32,700 -3,060 Descending Los Angeles Center
12:54AM 33.6467 -118.0650 133° Southeast 448 516 30,000 -2,580 Descending Los Angeles Center
12:55AM 33.5647 -117.9617 134° Southeast 431 496 27,500 -2,640 Descending Los Angeles Center
12:56AM 33.4833 -117.8603 134° Southeast 424 488 24,700 -2,580 Descending Los Angeles Center
12:57AM 33.4067 -117.7625 133° Southeast 409 471 22,300 -2,280 Descending Los Angeles Center
12:58AM 33.3339 -117.6708 134° Southeast 387 445 20,100 -2,100 Descending Los Angeles Center
12:59AM 33.2622 -117.5806 133° Southeast 377 434 18,000 -2,160 Descending Los Angeles Center
01:00AM 33.1850 -117.5086 142° Southeast 358 412 15,800 -2,700 Descending Los Angeles Center
01:01AM 33.0833 -117.4333 148° Southeast 349 402 12,500 -2,700 Descending Southern California TRACON
01:02AM 33.0000 -117.3667 146° Southeast 355 409 10,300 -1,500 Descending Southern California TRACON
01:03AM 32.9333 -117.3000 140° Southeast 298 343 9,600 -1,200 Descending Southern California TRACON
01:04AM 32.8667 -117.2500 148° Southeast 287 330 8,000 -1,440 Descending Southern California TRACON
01:05AM 32.8167 -117.2000 140° Southeast 277 319 6,800 -1,020 Descending Southern California TRACON
01:06AM 32.7833 -117.1167 115° Southeast 236 272 6,000 -900 Descending Southern California TRACON
01:07AM 32.7833 -117.0500 90° East 224 258 5,000 -600 Descending Southern California TRACON
01:08AM 32.7667 -116.9833 107° East 218 251 4,900 -600 Descending Southern California TRACON
01:09AM 32.7000 -116.9667 168° South 232 267 3,900 -960 Descending Southern California TRACON
01:10AM 32.7000 -117.0167 270° West 190 219 3,000 -900 Descending Southern California TRACON
01:11AM 32.7000 -117.0833 270° West 160 184 2,200 -960 Descending Southern California TRACON
01:12AM 32.7167 -117.1167 301° West 135 155 1,100 -1,020 Descending Southern California TRACON
01:13AM 32.7203 -117.1353 283° West 136 157 800 -720 Descending Los Angeles Center
01:14AM 32.7297 -117.1747 286° West 130 150 100 -720 Descending Los Angeles Center
01:16AM 32.7333 -117.1833 255° West  Level FlightAware Approximate
01:23AM 32.7336 -117.1897 255° West  Level Estimated